Time;durP1;ratioP1;P1;durP2;ratioP2;P2;SDS_P1;SDS_P2;PMS_P1;PMS_P2;Temp;Humidity;BMP_temperature;BMP_pressure;BME280_temperature;BME280_humidity;BME280_pressure;Samples;Min_cycle;Max_cycle;Signal;HPM_P1;HPM_P2
2024/01/06 00:01:12;;;;;;;31.97;11.47;;;;;;;2.71;100.00;99724.41;6009342;28;20210;-71
2024/01/06 00:04:07;;;;;;;34.45;11.15;;;;;;;2.67;100.00;99720.34;6024069;28;20767;-72
2024/01/06 00:07:02;;;;;;;29.67;9.70;;;;;;;2.69;100.00;99731.56;6016186;28;20042;-72
2024/01/06 00:09:58;;;;;;;30.67;10.13;;;;;;;2.69;100.00;99736.78;6005947;28;20054;-73
2024/01/06 00:12:53;;;;;;;34.07;11.80;;;;;;;2.65;100.00;99735.34;6004007;28;20031;-74
2024/01/06 00:15:48;;;;;;;33.77;11.13;;;;;;;2.69;100.00;99731.56;6003166;28;20026;-73
2024/01/06 00:18:44;;;;;;;31.30;11.60;;;;;;;2.67;100.00;99715.13;6015601;28;20207;-72
2024/01/06 00:21:39;;;;;;;38.13;12.57;;;;;;;2.64;100.00;99721.44;6011359;28;20128;-72
2024/01/06 00:24:34;;;;;;;42.40;13.90;;;;;;;2.59;100.00;99720.13;6003051;28;20494;-72
2024/01/06 00:27:30;;;;;;;34.90;12.60;;;;;;;2.61;100.00;99718.25;6002404;28;20117;-72
2024/01/06 00:30:25;;;;;;;33.23;10.30;;;;;;;2.68;100.00;99715.03;6002772;28;20066;-72
2024/01/06 00:33:21;;;;;;;30.48;10.02;;;;;;;2.66;100.00;99718.72;6000831;28;20035;-72
2024/01/06 00:36:16;;;;;;;35.45;12.52;;;;;;;2.64;100.00;99712.75;6001022;28;20038;-73
2024/01/06 00:39:11;;;;;;;33.83;11.30;;;;;;;2.61;100.00;99707.78;6006203;28;20042;-72
2024/01/06 00:42:06;;;;;;;38.50;12.67;;;;;;;2.68;100.00;99722.88;6023441;28;20795;-73
2024/01/06 00:45:04;;;;;;;32.10;11.90;;;;;;;2.63;100.00;99717.16;6016484;28;20030;-72
2024/01/06 00:47:59;;;;;;;28.88;11.07;;;;;;;2.66;100.00;99721.34;6010540;28;20438;-72
2024/01/06 00:50:54;;;;;;;31.00;10.57;;;;;;;2.65;100.00;99728.34;6000023;28;20022;-72
2024/01/06 00:53:50;;;;;;;23.33;9.25;;;;;;;2.72;100.00;99741.75;6015017;28;20042;-72
2024/01/06 00:56:45;;;;;;;26.80;8.83;;;;;;;2.66;100.00;99731.78;6002223;28;20031;-73
2024/01/06 00:59:40;;;;;;;33.27;10.37;;;;;;;2.70;100.00;99734.03;6002988;28;20258;-72
2024/01/06 01:02:36;;;;;;;31.50;12.00;;;;;;;2.73;100.00;99744.28;6002727;28;20027;-73
2024/01/06 01:05:31;;;;;;;28.03;10.23;;;;;;;2.73;100.00;99743.44;6011327;28;20071;-72
2024/01/06 01:08:26;;;;;;;31.83;11.57;;;;;;;2.67;100.00;99746.53;6002755;28;20035;-72
2024/01/06 01:11:22;;;;;;;28.13;9.10;;;;;;;2.68;100.00;99759.50;6010798;28;20035;-71
2024/01/06 01:14:18;;;;;;;35.57;12.00;;;;;;;2.65;100.00;99762.38;6002691;28;20479;-72
2024/01/06 01:17:13;;;;;;;34.03;13.65;;;;;;;2.67;100.00;99760.44;6001756;28;20050;-72
2024/01/06 01:20:09;;;;;;;32.07;10.80;;;;;;;2.65;100.00;99774.59;6002337;28;20038;-72
2024/01/06 01:23:08;;;;;;;36.15;12.50;;;;;;;2.54;100.00;99761.53;5999598;28;20478;-72
2024/01/06 01:26:03;;;;;;;33.05;11.45;;;;;;;2.57;100.00;99780.44;5998349;28;20074;-72
2024/01/06 01:28:58;;;;;;;40.60;13.27;;;;;;;2.51;100.00;99780.06;6020650;28;20458;-73
2024/01/06 01:31:54;;;;;;;37.63;12.47;;;;;;;2.48;100.00;99788.16;6013878;28;20030;-71
2024/01/06 01:34:49;;;;;;;32.83;10.63;;;;;;;2.53;100.00;99793.88;6014408;28;20033;-72
2024/01/06 01:37:44;;;;;;;31.33;10.07;;;;;;;2.54;100.00;99806.00;6001742;28;20104;-71
2024/01/06 01:40:39;;;;;;;31.97;11.13;;;;;;;2.53;100.00;99799.13;5998246;28;20051;-72
2024/01/06 01:43:35;;;;;;;36.63;12.10;;;;;;;2.46;100.00;99800.53;6020557;28;20026;-71
2024/01/06 01:46:30;;;;;;;32.93;11.67;;;;;;;2.42;100.00;99799.09;6018200;28;20270;-71
2024/01/06 01:49:26;;;;;;;40.17;13.23;;;;;;;2.36;100.00;99803.81;6001803;28;20270;-71
2024/01/06 01:52:22;;;;;;;37.42;12.85;;;;;;;2.32;100.00;99801.56;6029924;28;20066;-71
2024/01/06 01:55:17;;;;;;;36.28;11.82;;;;;;;2.36;100.00;99806.44;6006053;28;20063;-72
2024/01/06 01:58:13;;;;;;;40.97;12.73;;;;;;;2.38;100.00;99809.81;5995252;28;20039;-72
2024/01/06 02:01:09;;;;;;;38.25;12.23;;;;;;;2.33;100.00;99798.84;6006515;28;20042;-72
2024/01/06 02:04:05;;;;;;;38.50;12.05;;;;;;;2.38;100.00;99817.66;6017552;28;20038;-72
2024/01/06 02:07:00;;;;;;;30.02;9.18;;;;;;;2.34;100.00;99808.34;6001133;28;20037;-72
2024/01/06 02:09:56;;;;;;;34.63;11.10;;;;;;;2.33;100.00;99813.72;6001530;28;20082;-72
2024/01/06 02:12:53;;;;;;;39.87;10.80;;;;;;;2.33;100.00;99821.56;6001159;28;20046;-72
2024/01/06 02:15:49;;;;;;;39.08;13.13;;;;;;;2.31;100.00;99816.44;5998005;28;20394;-72
2024/01/06 02:18:44;;;;;;;32.45;10.77;;;;;;;2.27;100.00;99820.25;6010784;28;20041;-72
2024/01/06 02:21:43;;;;;;;36.33;11.68;;;;;;;2.34;100.00;99826.66;5998594;28;20042;-72
2024/01/06 02:24:39;;;;;;;32.35;10.00;;;;;;;2.29;100.00;99825.34;6001290;28;20034;-72
2024/01/06 02:27:34;;;;;;;36.90;12.23;;;;;;;2.29;100.00;99823.56;6007042;28;20544;-72
2024/01/06 02:30:29;;;;;;;33.53;9.50;;;;;;;2.28;100.00;99827.13;6020016;28;20266;-72
2024/01/06 02:33:28;;;;;;;28.90;9.30;;;;;;;2.29;100.00;99833.19;5995097;28;20394;-73
2024/01/06 02:36:23;;;;;;;37.50;12.00;;;;;;;2.30;100.00;99838.31;6000505;28;20325;-71
2024/01/06 02:39:18;;;;;;;30.57;9.93;;;;;;;2.23;100.00;99831.88;6001237;28;20414;-72
2024/01/06 02:42:13;;;;;;;32.93;9.97;;;;;;;2.28;100.00;99839.38;6001321;28;20035;-71
2024/01/06 02:45:09;;;;;;;39.63;11.97;;;;;;;2.27;100.00;99840.31;5999600;28;20019;-72
2024/01/06 02:48:05;;;;;;;33.63;9.68;;;;;;;2.30;100.00;99840.09;5998230;28;20125;-72
2024/01/06 02:51:00;;;;;;;38.20;10.85;;;;;;;2.21;100.00;99832.94;6019920;28;20057;-72
2024/01/06 02:53:55;;;;;;;38.70;11.77;;;;;;;2.26;100.00;99843.88;6015932;28;20035;-72
2024/01/06 02:56:50;;;;;;;38.17;12.87;;;;;;;2.24;100.00;99840.56;6006794;28;20040;-72
2024/01/06 02:59:46;;;;;;;45.83;11.93;;;;;;;2.23;100.00;99855.41;6025155;28;20031;-71
2024/01/06 03:02:42;;;;;;;37.77;11.13;;;;;;;2.20;100.00;99846.97;6020489;28;20451;-71
2024/01/06 03:05:38;;;;;;;32.85;10.60;;;;;;;2.23;100.00;99849.34;6008208;28;20043;-71
2024/01/06 03:08:34;;;;;;;35.77;10.23;;;;;;;2.18;100.00;99841.84;6005011;28;20490;-71
2024/01/06 03:11:29;;;;;;;29.00;9.75;;;;;;;2.25;100.00;99864.00;6005424;28;20776;-71
2024/01/06 03:14:25;;;;;;;32.57;10.60;;;;;;;2.21;100.00;99852.06;6018599;28;20070;-71
2024/01/06 03:17:20;;;;;;;37.93;11.90;;;;;;;2.20;100.00;99850.41;6004567;28;20495;-73
2024/01/06 03:20:15;;;;;;;34.57;9.67;;;;;;;2.20;100.00;99854.81;6003650;28;20123;-71
2024/01/06 03:23:11;;;;;;;39.90;10.70;;;;;;;2.25;100.00;99866.59;5999244;28;20058;-72
2024/01/06 03:26:06;;;;;;;30.57;10.17;;;;;;;2.21;100.00;99862.53;6004000;28;20093;-71
2024/01/06 03:29:02;;;;;;;34.20;10.52;;;;;;;2.21;100.00;99870.38;6018385;28;20022;-71
2024/01/06 03:31:58;;;;;;;36.58;10.00;;;;;;;2.23;100.00;99865.88;6004832;28;20045;-72
2024/01/06 03:34:53;;;;;;;36.40;11.75;;;;;;;2.19;100.00;99867.06;6011198;28;20039;-70
2024/01/06 03:37:48;;;;;;;33.83;10.18;;;;;;;2.26;100.00;99870.88;6009287;28;20026;-70
2024/01/06 03:40:44;;;;;;;34.93;9.90;;;;;;;2.20;100.00;99868.69;5997498;28;20031;-71
2024/01/06 03:43:39;;;;;;;32.53;10.27;;;;;;;2.23;100.00;99871.09;6019570;28;20022;-71
2024/01/06 03:46:35;;;;;;;34.03;9.87;;;;;;;2.29;100.00;99881.09;6014093;28;20033;-71
2024/01/06 03:49:30;;;;;;;37.55;10.65;;;;;;;2.26;100.00;99880.50;6004076;28;20034;-71
2024/01/06 03:52:25;;;;;;;35.88;10.68;;;;;;;2.29;100.00;99885.50;6003721;28;20046;-71
2024/01/06 03:55:21;;;;;;;36.47;11.57;;;;;;;2.24;100.00;99885.84;6003048;28;20035;-71
2024/01/06 03:58:16;;;;;;;34.30;10.30;;;;;;;2.21;100.00;99869.53;6006998;28;20474;-72
2024/01/06 04:01:11;;;;;;;35.23;11.30;;;;;;;2.24;100.00;99888.47;6011957;28;20267;-71
2024/01/06 04:04:07;;;;;;;35.30;12.23;;;;;;;2.25;100.00;99889.31;6003651;28;20306;-71
2024/01/06 04:07:02;;;;;;;40.73;10.60;;;;;;;2.23;100.00;99896.41;6009686;28;20038;-71
2024/01/06 04:09:58;;;;;;;33.85;10.65;;;;;;;2.27;100.00;99896.09;6018051;28;20114;-70
2024/01/06 04:12:53;;;;;;;30.90;9.57;;;;;;;2.34;100.00;99904.28;6003229;28;20497;-71
2024/01/06 04:15:48;;;;;;;31.63;10.10;;;;;;;2.26;100.00;99904.03;6003424;28;20082;-71
2024/01/06 04:18:44;;;;;;;41.80;12.90;;;;;;;2.26;100.00;99911.88;6005030;28;20031;-71
2024/01/06 04:21:39;;;;;;;42.87;10.27;;;;;;;2.28;100.00;99916.03;6003707;28;20042;-72
2024/01/06 04:24:37;;;;;;;33.00;10.17;;;;;;;2.29;100.00;99909.88;6004043;28;20031;-72
2024/01/06 04:27:34;;;;;;;29.00;8.95;;;;;;;2.33;100.00;99913.94;6007336;28;20030;-72
2024/01/06 04:30:29;;;;;;;38.88;11.68;;;;;;;2.32;100.00;99903.59;6013410;28;20109;-71
2024/01/06 04:33:24;;;;;;;37.33;11.43;;;;;;;2.28;100.00;99916.03;6016209;28;20484;-72
2024/01/06 04:36:19;;;;;;;37.13;12.60;;;;;;;2.28;100.00;99916.03;6002005;28;20042;-71
2024/01/06 04:39:15;;;;;;;34.93;10.47;;;;;;;2.34;100.00;99926.06;6009937;28;20031;-70
2024/01/06 04:42:10;;;;;;;33.53;11.17;;;;;;;2.28;100.00;99930.94;6011220;28;20092;-72
2024/01/06 04:45:06;;;;;;;31.27;9.00;;;;;;;2.27;100.00;99935.31;6011384;28;20362;-70
2024/01/06 04:48:01;;;;;;;32.42;9.73;;;;;;;2.24;100.00;99922.47;6001524;28;20365;-70
2024/01/06 04:50:57;;;;;;;34.93;10.30;;;;;;;2.33;100.00;99945.34;6003476;28;20022;-70
2024/01/06 04:53:52;;;;;;;35.73;11.10;;;;;;;2.29;100.00;99933.41;6026875;28;20154;-70
2024/01/06 04:56:47;;;;;;;37.90;12.63;;;;;;;2.34;100.00;99946.97;6011121;28;20899;-71
2024/01/06 04:59:43;;;;;;;42.70;12.38;;;;;;;2.33;100.00;99949.72;6003404;28;20486;-71
2024/01/06 05:02:38;;;;;;;37.60;11.10;;;;;;;2.28;100.00;99951.84;6002983;28;20033;-70
2024/01/06 05:05:33;;;;;;;37.90;10.87;;;;;;;2.29;100.00;99949.09;6007888;28;20305;-70
2024/01/06 05:08:30;;;;;;;34.77;11.77;;;;;;;2.25;100.00;99944.22;6002816;28;20189;-70
2024/01/06 05:11:26;;;;;;;37.80;9.60;;;;;;;2.31;100.00;99956.84;6004521;28;20035;-72
2024/01/06 05:14:21;;;;;;;35.83;10.97;;;;;;;2.26;100.00;99954.56;6002815;28;20451;-71
2024/01/06 05:17:16;;;;;;;34.37;11.23;;;;;;;2.29;100.00;99964.81;6001919;28;20475;-71
2024/01/06 05:20:12;;;;;;;35.30;10.30;;;;;;;2.25;100.00;99963.38;6000648;28;20034;-71
2024/01/06 05:23:07;;;;;;;40.03;11.35;;;;;;;2.27;100.00;99971.94;6003202;28;20033;-71
2024/01/06 05:26:03;;;;;;;39.43;11.80;;;;;;;2.20;100.00;99965.47;6001092;28;20031;-71
2024/01/06 05:28:58;;;;;;;42.80;11.45;;;;;;;2.23;100.00;99970.47;6002695;28;20291;-72
2024/01/06 05:31:53;;;;;;;46.67;13.00;;;;;;;2.20;100.00;99980.34;6001082;28;20034;-71
2024/01/06 05:34:49;;;;;;;32.30;10.27;;;;;;;2.25;100.00;99989.53;6001789;28;20033;-71
2024/01/06 05:37:44;;;;;;;40.88;12.55;;;;;;;2.19;100.00;99978.66;6000402;28;20398;-71
2024/01/06 05:40:39;;;;;;;38.70;13.00;;;;;;;2.21;100.00;99993.28;6002271;28;20039;-71
2024/01/06 05:43:35;;;;;;;31.27;10.80;;;;;;;2.19;100.00;99984.72;5999506;28;20023;-71
2024/01/06 05:46:30;;;;;;;33.43;10.40;;;;;;;2.24;100.00;100003.53;6000503;28;20521;-71
2024/01/06 05:49:25;;;;;;;42.13;12.03;;;;;;;2.23;100.00;99996.63;6017568;28;20033;-71
2024/01/06 05:52:20;;;;;;;33.27;10.30;;;;;;;2.20;100.00;99989.00;6014603;28;20038;-71
2024/01/06 05:55:16;;;;;;;35.03;9.90;;;;;;;2.25;100.00;100007.84;6004924;28;20031;-71
2024/01/06 05:58:11;;;;;;;43.27;13.03;;;;;;;2.27;100.00;100003.31;5999906;28;20062;-71
2024/01/06 06:01:07;;;;;;;39.60;12.77;;;;;;;2.24;100.00;100013.16;6023577;28;20478;-71
2024/01/06 06:04:02;;;;;;;35.40;11.43;;;;;;;2.22;100.00;100013.28;6029802;28;20022;-71
2024/01/06 06:06:57;;;;;;;36.80;11.07;;;;;;;2.24;100.00;100019.22;6035461;28;20426;-71
2024/01/06 06:09:53;;;;;;;44.00;12.27;;;;;;;2.25;100.00;100031.38;6024892;28;20046;-72
2024/01/06 06:12:49;;;;;;;38.00;11.75;;;;;;;2.25;100.00;100035.75;6032232;28;20041;-71
2024/01/06 06:15:44;;;;;;;35.60;10.10;;;;;;;2.19;100.00;100026.56;6034349;28;20031;-70
2024/01/06 06:18:39;;;;;;;40.23;10.37;;;;;;;2.24;100.00;100047.16;6030911;28;20085;-70
2024/01/06 06:21:35;;;;;;;39.90;10.02;;;;;;;2.18;100.00;100037.97;6039885;28;20022;-70
2024/01/06 06:24:31;;;;;;;48.50;13.60;;;;;;;2.19;100.00;100057.97;6044377;28;20053;-71
2024/01/06 06:27:26;;;;;;;47.40;13.60;;;;;;;2.11;100.00;100044.59;6040893;28;20505;-70
2024/01/06 06:30:22;;;;;;;40.53;10.02;;;;;;;2.20;100.00;100061.41;6032184;28;20041;-71
2024/01/06 06:33:17;;;;;;;38.17;10.68;;;;;;;2.14;100.00;100054.84;6031976;28;20034;-71
2024/01/06 06:36:12;;;;;;;46.00;12.17;;;;;;;2.17;100.00;100064.25;6027737;28;20037;-71
2024/01/06 06:39:08;;;;;;;44.03;10.33;;;;;;;2.19;100.00;100065.81;6032086;28;20026;-72
2024/01/06 06:42:04;;;;;;;39.15;10.75;;;;;;;2.16;100.00;100073.88;6037898;28;20484;-71
2024/01/06 06:44:59;;;;;;;33.75;10.98;;;;;;;2.17;100.00;100072.09;6024833;28;20032;-70
2024/01/06 06:47:54;;;;;;;33.10;10.73;;;;;;;2.24;100.00;100087.22;6043197;28;20374;-70
2024/01/06 06:50:50;;;;;;;37.57;11.27;;;;;;;2.19;100.00;100083.25;6041814;28;20034;-70
2024/01/06 06:53:45;;;;;;;40.53;13.23;;;;;;;2.24;100.00;100099.47;6037643;28;20045;-70
2024/01/06 06:56:40;;;;;;;34.77;11.37;;;;;;;2.24;100.00;100100.31;6035466;28;20033;-70
2024/01/06 06:59:36;;;;;;;34.85;10.52;;;;;;;2.19;100.00;100102.41;6028767;28;20046;-70
2024/01/06 07:02:31;;;;;;;47.40;13.30;;;;;;;2.18;100.00;100103.34;6043678;28;20069;-71
2024/01/06 07:05:27;;;;;;;31.45;8.98;;;;;;;2.18;100.00;100108.56;6023528;28;20064;-71
2024/01/06 07:08:22;;;;;;;35.47;11.50;;;;;;;2.19;100.00;100110.25;6029896;28;20038;-71
2024/01/06 07:11:18;;;;;;;35.10;11.07;;;;;;;2.15;100.00;100103.56;6039818;28;20030;-71
2024/01/06 07:14:13;;;;;;;30.13;9.02;;;;;;;2.18;100.00;100124.25;6039379;28;20033;-70
2024/01/06 07:17:09;;;;;;;31.70;9.37;;;;;;;2.13;100.00;100123.75;6032249;28;20046;-70
2024/01/06 07:20:06;;;;;;;42.77;11.80;;;;;;;2.18;100.00;100129.50;6028973;28;20035;-70
2024/01/06 07:23:03;;;;;;;29.15;10.25;;;;;;;2.18;100.00;100132.09;6029728;28;20045;-71
2024/01/06 07:25:58;;;;;;;31.90;9.85;;;;;;;2.18;100.00;100136.50;6022951;28;20077;-71
2024/01/06 07:28:53;;;;;;;38.70;12.13;;;;;;;2.19;100.00;100146.88;6032413;28;20096;-70
2024/01/06 07:31:48;;;;;;;34.40;9.73;;;;;;;2.20;100.00;100143.28;6036972;28;20121;-71
2024/01/06 07:34:44;;;;;;;34.50;10.43;;;;;;;2.17;100.00;100153.16;6031992;28;20097;-70
2024/01/06 07:37:39;;;;;;;36.33;10.70;;;;;;;2.18;100.00;100160.88;6027511;28;20053;-70
2024/01/06 07:40:34;;;;;;;34.87;10.70;;;;;;;2.16;100.00;100159.31;6045448;28;20257;-70
2024/01/06 07:43:30;;;;;;;35.07;9.20;;;;;;;2.16;100.00;100172.38;6049047;28;20022;-71
2024/01/06 07:46:25;;;;;;;32.83;9.98;;;;;;;2.16;100.00;100172.38;6038826;28;20025;-70
2024/01/06 07:49:21;;;;;;;27.20;10.07;;;;;;;2.18;100.00;100181.78;6042588;28;20401;-71
2024/01/06 07:52:16;;;;;;;33.67;10.50;;;;;;;2.14;100.00;100169.06;6037242;28;20264;-71
2024/01/06 07:55:12;;;;;;;33.40;9.25;;;;;;;2.20;100.00;100185.13;6040420;28;20045;-71
2024/01/06 07:58:07;;;;;;;28.77;8.75;;;;;;;2.14;100.00;100182.97;6037970;28;20025;-70
2024/01/06 08:01:03;;;;;;;37.30;10.77;;;;;;;2.19;100.00;100199.19;6037915;28;20022;-71
2024/01/06 08:03:58;;;;;;;37.08;10.68;;;;;;;2.19;100.00;100209.63;6027010;28;20030;-70
2024/01/06 08:06:54;;;;;;;30.73;8.93;;;;;;;2.16;100.00;100209.84;6024777;28;20031;-70
2024/01/06 08:09:49;;;;;;;45.45;12.18;;;;;;;2.20;100.00;100216.53;6025189;28;20073;-71
2024/01/06 08:12:45;;;;;;;37.90;11.73;;;;;;;2.13;100.00;100220.50;6021119;28;20478;-71
2024/01/06 08:15:40;;;;;;;28.33;8.93;;;;;;;2.09;100.00;100202.53;6030923;28;20569;-70
2024/01/06 08:18:35;;;;;;;33.87;8.80;;;;;;;2.03;100.00;100214.25;6020164;28;20466;-70
2024/01/06 08:21:30;;;;;;;35.97;9.73;;;;;;;2.05;100.00;100217.59;6041821;28;20477;-70
2024/01/06 08:24:26;;;;;;;25.47;8.47;;;;;;;2.10;100.00;100225.94;6043713;28;20053;-70
2024/01/06 08:27:23;;;;;;;32.60;10.02;;;;;;;2.04;100.00;100236.00;6032843;28;20031;-71
2024/01/06 08:30:19;;;;;;;37.38;11.13;;;;;;;2.12;100.00;100246.78;6034176;28;20064;-70
2024/01/06 08:33:14;;;;;;;40.28;11.50;;;;;;;2.02;100.00;100233.47;6032106;28;20092;-71
2024/01/06 08:36:10;;;;;;;39.47;10.93;;;;;;;2.01;100.00;100231.78;6026702;28;20110;-71
2024/01/06 08:39:05;;;;;;;45.50;12.23;;;;;;;2.01;100.00;100244.06;6028858;28;20125;-71
2024/01/06 08:42:00;;;;;;;46.87;13.73;;;;;;;2.01;100.00;100255.31;6042955;28;20028;-70
2024/01/06 08:44:56;;;;;;;44.03;11.13;;;;;;;1.95;100.00;100253.13;6030269;28;20047;-70
2024/01/06 08:47:51;;;;;;;44.43;11.60;;;;;;;2.04;100.00;100276.03;6015746;28;20031;-70
2024/01/06 08:50:46;;;;;;;44.30;11.57;;;;;;;2.03;100.00;100279.59;6023067;28;20113;-70
2024/01/06 08:53:42;;;;;;;40.70;12.23;;;;;;;1.98;100.00;100271.25;6026978;28;20061;-70
2024/01/06 08:56:38;;;;;;;47.00;13.33;;;;;;;2.03;100.00;100289.22;6045021;28;20766;-71
2024/01/06 08:59:33;;;;;;;49.00;12.40;;;;;;;1.99;100.00;100283.34;6040327;28;20261;-70
2024/01/06 09:02:28;;;;;;;55.73;14.17;;;;;;;2.05;100.00;100293.41;6040257;28;20036;-71
2024/01/06 09:05:24;;;;;;;46.27;12.47;;;;;;;1.97;100.00;100287.00;6031753;28;20028;-71
2024/01/06 09:08:19;;;;;;;43.13;12.53;;;;;;;2.00;100.00;100295.50;6041562;28;20509;-71
2024/01/06 09:11:14;;;;;;;47.45;11.52;;;;;;;1.99;100.00;100301.66;6039216;28;20270;-71
2024/01/06 09:14:12;;;;;;;52.73;12.47;;;;;;;2.00;100.00;100313.81;6041628;28;20040;-71
2024/01/06 09:17:08;;;;;;;42.92;13.50;;;;;;;2.05;100.00;100319.56;6042871;28;20026;-71
2024/01/06 09:20:03;;;;;;;44.03;12.20;;;;;;;2.05;100.00;100335.25;6033420;28;20080;-71
2024/01/06 09:22:59;;;;;;;50.80;13.02;;;;;;;2.02;100.00;100321.53;6024110;28;20278;-71
2024/01/06 09:25:54;;;;;;;51.37;14.20;;;;;;;2.01;100.00;100336.38;6028979;28;20104;-71
2024/01/06 09:28:50;;;;;;;58.70;14.65;;;;;;;1.97;100.00;100321.00;6026303;28;20064;-71
2024/01/06 09:31:45;;;;;;;41.63;13.17;;;;;;;1.95;100.00;100331.56;6035512;28;20041;-72
2024/01/06 09:34:40;;;;;;;45.13;13.30;;;;;;;2.00;100.00;100345.16;6020293;28;20573;-71
2024/01/06 09:37:36;;;;;;;43.43;14.07;;;;;;;2.00;100.00;100350.41;6030228;28;20100;-71
2024/01/06 09:40:32;;;;;;;59.13;13.90;;;;;;;2.05;100.00;100352.69;6034605;28;20390;-71
2024/01/06 09:43:27;;;;;;;47.65;12.35;;;;;;;1.92;100.00;100344.00;6032009;28;20383;-71
2024/01/06 09:46:27;;;;;;;56.67;14.50;;;;;;;1.89;100.00;100352.88;6030812;28;20034;-71
2024/01/06 09:49:23;;;;;;;43.33;14.05;;;;;;;1.93;100.00;100351.72;6029790;28;20097;-70
2024/01/06 09:52:21;;;;;;;43.95;12.10;;;;;;;1.99;100.00;100367.00;6035038;28;20478;-70
2024/01/06 09:55:17;;;;;;;44.88;12.20;;;;;;;1.94;100.00;100376.94;6033154;28;20026;-70
2024/01/06 09:58:12;;;;;;;38.87;12.40;;;;;;;1.99;100.00;100371.41;6023245;28;20042;-69
2024/01/06 10:01:09;;;;;;;40.00;12.23;;;;;;;1.94;100.00;100376.94;6027380;28;20030;-70
2024/01/06 10:04:04;;;;;;;44.85;15.63;;;;;;;1.91;100.00;100376.28;6031204;28;20023;-70
2024/01/06 10:07:00;;;;;;;47.33;13.03;;;;;;;1.87;100.00;100369.59;6030909;28;20118;-70
2024/01/06 10:09:55;;;;;;;51.30;13.77;;;;;;;1.81;100.00;100360.38;6035036;28;20019;-70
2024/01/06 10:12:53;;;;;;;37.63;12.45;;;;;;;1.91;100.00;100378.91;6033627;28;20036;-70
2024/01/06 10:15:48;;;;;;;42.35;11.73;;;;;;;1.87;100.00;100385.28;6035380;28;20038;-70
2024/01/06 10:18:44;;;;;;;50.55;15.02;;;;;;;1.85;100.00;100387.16;6030659;28;20037;-70
2024/01/06 10:21:39;;;;;;;48.13;13.15;;;;;;;1.87;100.00;100390.50;6033551;28;20120;-70
2024/01/06 10:24:37;;;;;;;40.83;13.15;;;;;;;1.87;100.00;100390.50;6027419;28;20110;-71
2024/01/06 10:27:36;;;;;;;28.70;9.27;;;;;;;1.89;100.00;100392.09;6028969;28;20037;-71
2024/01/06 10:30:32;;;;;;;49.70;14.20;;;;;;;1.88;100.00;100394.78;6030579;28;20042;-72
2024/01/06 10:33:27;;;;;;;49.30;12.63;;;;;;;1.79;100.00;100385.78;6024310;28;20049;-71
2024/01/06 10:36:23;;;;;;;35.07;11.23;;;;;;;1.91;100.00;100390.19;6022036;28;20041;-72
2024/01/06 10:39:18;;;;;;;56.05;15.07;;;;;;;1.85;100.00;100387.97;6026160;28;20278;-71
2024/01/06 10:42:14;;;;;;;45.60;12.53;;;;;;;1.67;100.00;100374.34;6028907;28;20069;-72
2024/01/06 10:45:13;;;;;;;47.95;12.45;;;;;;;1.88;100.00;100408.69;6027877;28;20743;-73
2024/01/06 10:48:08;;;;;;;38.63;12.00;;;;;;;1.79;100.00;100406.69;6027442;28;20034;-74
2024/01/06 10:51:07;;;;;;;44.00;13.48;;;;;;;1.84;100.00;100407.22;6031430;28;20096;-72
2024/01/06 10:54:02;;;;;;;48.55;13.75;;;;;;;1.76;100.00;100420.81;6035463;28;20038;-72
2024/01/06 10:56:58;;;;;;;46.10;11.50;;;;;;;1.68;100.00;100417.00;6028295;28;20057;-72
2024/01/06 10:59:54;;;;;;;44.35;12.27;;;;;;;1.81;100.00;100423.09;6022406;28;20038;-70
2024/01/06 11:02:52;;;;;;;41.92;12.23;;;;;;;1.73;100.00;100425.38;6024819;28;20505;-71
2024/01/06 11:05:48;;;;;;;39.38;13.05;;;;;;;1.70;100.00;100418.56;6029651;28;20061;-72
2024/01/06 11:08:51;;;;;;;31.27;10.30;;;;;;;1.75;100.00;100428.72;6031165;28;20026;-71
2024/01/06 11:11:47;;;;;;;28.48;10.48;;;;;;;1.62;100.00;100412.16;6029332;28;20033;-71
2024/01/06 11:14:45;;;;;;;37.67;11.88;;;;;;;1.70;100.00;100425.56;6029452;28;20121;-71
2024/01/06 11:17:53;;;;;;;40.03;10.32;;;;;;;1.70;100.00;100425.56;5983872;28;20033;-71
2024/01/06 11:21:17;;;;;;;34.47;9.27;;;;;;;1.61;100.00;100418.28;6021377;28;20042;-71
2024/01/06 11:24:21;;;;;;;37.03;10.80;;;;;;;1.69;100.00;100421.25;6029649;28;20394;-71
2024/01/06 11:27:18;;;;;;;35.00;11.20;;;;;;;1.69;100.00;100429.09;6030720;28;20101;-71
2024/01/06 11:30:24;;;;;;;37.17;11.20;;;;;;;1.65;100.00;100430.25;6031339;28;20026;-71
2024/01/06 11:33:19;;;;;;;35.83;11.93;;;;;;;1.63;100.00;100424.28;6022822;28;20034;-71
2024/01/06 11:36:15;;;;;;;36.67;10.73;;;;;;;1.68;100.00;100428.28;6025195;28;20073;-72
2024/01/06 11:39:39;;;;;;;34.38;10.80;;;;;;;1.67;100.00;100423.13;6029162;28;20508;-71
2024/01/06 11:42:35;;;;;;;32.67;9.98;;;;;;;1.56;100.00;100417.75;6029109;28;20030;-71
2024/01/06 11:45:32;;;;;;;35.25;13.10;;;;;;;1.64;100.00;100423.31;6040195;28;20074;-72
2024/01/06 11:48:29;;;;;;;31.85;10.82;;;;;;;1.67;100.00;100430.97;6030629;28;20073;-71
2024/01/06 11:51:25;;;;;;;43.97;12.27;;;;;;;1.68;100.00;100438.75;6029225;28;20047;-71
2024/01/06 11:54:21;;;;;;;41.60;11.80;;;;;;;1.71;100.00;100419.41;6026496;28;20038;-72
2024/01/06 11:57:16;;;;;;;42.75;12.63;;;;;;;1.63;100.00;100421.66;6033618;28;20057;-72
2024/01/06 12:00:14;;;;;;;34.67;11.53;;;;;;;1.62;100.00;100417.38;6026909;28;20120;-71
2024/01/06 12:03:09;;;;;;;42.95;12.32;;;;;;;1.66;100.00;100439.75;6026685;28;20285;-72
2024/01/06 12:06:05;;;;;;;39.15;11.10;;;;;;;1.58;100.00;100431.53;6025622;28;20039;-72
2024/01/06 12:09:19;;;;;;;37.00;11.07;;;;;;;1.54;100.00;100427.47;6027938;28;20023;-72
2024/01/06 12:12:18;;;;;;;44.92;12.23;;;;;;;1.54;100.00;100427.47;6026243;28;20042;-72
2024/01/06 12:15:14;;;;;;;41.25;11.70;;;;;;;1.46;100.00;100417.50;6029511;28;20034;-72
2024/01/06 12:18:10;;;;;;;37.58;11.75;;;;;;;1.48;100.00;100430.44;6035731;28;20053;-72
2024/01/06 12:21:05;;;;;;;47.43;12.90;;;;;;;1.46;100.00;100424.50;6026020;28;20362;-71
2024/01/06 12:24:20;;;;;;;54.20;13.33;;;;;;;1.47;100.00;100439.25;6000793;28;20022;-72
2024/01/06 12:27:21;;;;;;;56.30;14.32;;;;;;;1.37;100.00;100446.78;6020977;28;20037;-72
2024/01/06 12:30:22;;;;;;;46.58;15.02;;;;;;;1.39;100.00;100451.91;6024272;28;20038;-72
2024/01/06 12:33:17;;;;;;;43.55;11.80;;;;;;;1.38;100.00;100456.31;6025238;28;20402;-72
2024/01/06 12:36:13;;;;;;;44.28;12.55;;;;;;;1.40;100.00;100464.03;6030296;28;20041;-72
2024/01/06 12:39:16;;;;;;;53.28;14.93;;;;;;;1.44;100.00;100468.16;6030742;28;20030;-73
2024/01/06 12:42:15;;;;;;;44.03;13.50;;;;;;;1.42;100.00;100473.47;6025545;28;20044;-72
2024/01/06 12:45:11;;;;;;;53.92;14.57;;;;;;;1.40;100.00;100475.34;6029269;28;20035;-72
2024/01/06 12:48:06;;;;;;;54.95;14.32;;;;;;;1.38;100.00;100453.72;6034976;28;20038;-71
2024/01/06 12:51:05;;;;;;;57.75;17.38;;;;;;;1.35;100.00;100464.34;6026772;28;20502;-70
2024/01/06 12:54:02;;;;;;;47.53;14.82;;;;;;;1.36;100.00;100473.84;6024628;28;20045;-72
2024/01/06 12:56:57;;;;;;;51.50;15.18;;;;;;;1.40;100.00;100477.94;6021898;28;20112;-72
2024/01/06 12:59:54;;;;;;;49.30;13.93;;;;;;;1.33;100.00;100467.97;6022953;28;20469;-71
2024/01/06 13:02:49;;;;;;;48.33;13.70;;;;;;;1.35;100.00;100473.94;6029253;28;20285;-72
2024/01/06 13:05:45;;;;;;;44.37;12.57;;;;;;;1.34;100.00;100469.63;6024832;28;20061;-72
2024/01/06 13:08:40;;;;;;;39.08;13.35;;;;;;;1.27;100.00;100489.25;6023120;28;20471;-71
2024/01/06 13:11:36;;;;;;;42.63;12.90;;;;;;;1.22;100.00;100489.53;6034535;28;20457;-72
2024/01/06 13:14:32;;;;;;;45.33;13.48;;;;;;;1.25;100.00;100497.16;6031363;28;20470;-71
2024/01/06 13:17:27;;;;;;;46.58;14.18;;;;;;;1.25;100.00;100491.09;6026695;28;20041;-70
2024/01/06 13:20:22;;;;;;;37.47;13.73;;;;;;;1.21;100.00;100490.44;6026536;28;20035;-72
2024/01/06 13:23:18;;;;;;;39.53;12.90;;;;;;;1.10;100.00;100491.09;6027865;28;20363;-71
2024/01/06 13:26:14;;;;;;;43.55;13.10;;;;;;;1.14;100.00;100483.94;6024948;28;20033;-72